Аэропорт: Шпаковское. Ставрополь

ICAO: URMT

METAR:
2021-04-21 20:30:00
URMT 212030Z 20002MPS CAVOK 08/06 Q1020 R25/150060 NOSIG RMK QFE726
METAR:
2021-04-21 17:00:00
TAF URMT 211700Z 2118/2203 20003G08MPS 9999 SCT030 TEMPO 2118/2203 VRB01MPS